sensor_id;sensor_type;location;lat;lon;timestamp;pressure;altitude;pressure_sealevel;temperature;humidity
74552;BME280;63025;55.472;38.432;2023-08-06T00:00:23;100511.22;;;19.62;100.00
74552;BME280;63025;55.472;38.432;2023-08-06T00:02:49;100513.41;;;19.60;100.00
74552;BME280;63025;55.472;38.432;2023-08-06T00:05:16;100512.56;;;19.60;100.00
74552;BME280;63025;55.472;38.432;2023-08-06T00:07:48;100518.84;;;19.60;100.00
74552;BME280;63025;55.472;38.432;2023-08-06T00:10:14;100518.84;;;19.60;100.00
74552;BME280;63025;55.472;38.432;2023-08-06T00:12:40;100513.41;;;19.60;100.00
74552;BME280;63025;55.472;38.432;2023-08-06T00:15:07;100511.75;;;19.59;100.00
74552;BME280;63025;55.472;38.432;2023-08-06T00:17:33;100511.75;;;19.59;100.00
74552;BME280;63025;55.472;38.432;2023-08-06T00:20:01;100518.78;;;19.55;100.00
74552;BME280;63025;55.472;38.432;2023-08-06T00:22:37;100509.22;;;19.53;100.00
74552;BME280;63025;55.472;38.432;2023-08-06T00:25:04;100516.56;;;19.52;100.00
74552;BME280;63025;55.472;38.432;2023-08-06T00:27:33;100510.03;;;19.53;100.00
74552;BME280;63025;55.472;38.432;2023-08-06T00:29:59;100521.47;;;19.50;100.00
74552;BME280;63025;55.472;38.432;2023-08-06T00:32:26;100519.84;;;19.49;100.00
74552;BME280;63025;55.472;38.432;2023-08-06T00:34:53;100522.78;;;19.48;100.00
74552;BME280;63025;55.472;38.432;2023-08-06T00:37:19;100520.31;;;19.46;100.00
74552;BME280;63025;55.472;38.432;2023-08-06T00:39:46;100533.09;;;19.46;100.00
74552;BME280;63025;55.472;38.432;2023-08-06T00:42:12;100533.34;;;19.44;100.00
74552;BME280;63025;55.472;38.432;2023-08-06T00:44:39;100536.09;;;19.44;100.00
74552;BME280;63025;55.472;38.432;2023-08-06T00:47:08;100528.44;;;19.41;100.00
74552;BME280;63025;55.472;38.432;2023-08-06T00:49:36;100523.50;;;19.38;100.00
74552;BME280;63025;55.472;38.432;2023-08-06T00:52:04;100527.03;;;19.38;100.00
74552;BME280;63025;55.472;38.432;2023-08-06T00:54:31;100526.78;;;19.40;100.00
74552;BME280;63025;55.472;38.432;2023-08-06T00:56:59;100525.72;;;19.41;100.00
74552;BME280;63025;55.472;38.432;2023-08-06T00:59:27;100528.69;;;19.39;100.00
74552;BME280;63025;55.472;38.432;2023-08-06T01:01:52;100525.72;;;19.41;100.00
74552;BME280;63025;55.472;38.432;2023-08-06T01:04:19;100524.59;;;19.42;100.00
74552;BME280;63025;55.472;38.432;2023-08-06T01:07:02;100525.75;;;19.46;100.00
74552;BME280;63025;55.472;38.432;2023-08-06T01:09:55;100530.13;;;19.47;100.00
74552;BME280;63025;55.472;38.432;2023-08-06T01:15:28;100536.34;;;19.42;100.00
74552;BME280;63025;55.472;38.432;2023-08-06T01:17:57;100540.41;;;19.40;100.00
74552;BME280;63025;55.472;38.432;2023-08-06T01:20:28;100540.41;;;19.40;100.00
74552;BME280;63025;55.472;38.432;2023-08-06T01:22:54;100538.78;;;19.39;100.00
74552;BME280;63025;55.472;38.432;2023-08-06T01:25:20;100548.03;;;19.38;100.00
74552;BME280;63025;55.472;38.432;2023-08-06T01:27:48;100545.53;;;19.36;100.00
74552;BME280;63025;55.472;38.432;2023-08-06T01:30:25;100541.41;;;19.34;100.00
74552;BME280;63025;55.472;38.432;2023-08-06T01:32:54;100535.97;;;19.34;100.00
74552;BME280;63025;55.472;38.432;2023-08-06T01:35:26;100545.22;;;19.33;100.00
74552;BME280;63025;55.472;38.432;2023-08-06T01:37:53;100539.78;;;19.33;100.00
74552;BME280;63025;55.472;38.432;2023-08-06T01:40:19;100544.16;;;19.34;100.00
74552;BME280;63025;55.472;38.432;2023-08-06T01:42:45;100541.41;;;19.34;100.00
74552;BME280;63025;55.472;38.432;2023-08-06T01:45:12;100545.78;;;19.35;100.00
74552;BME280;63025;55.472;38.432;2023-08-06T01:47:38;100547.19;;;19.37;100.00
74552;BME280;63025;55.472;38.432;2023-08-06T01:50:04;100554.06;;;19.40;100.00
74552;BME280;63025;55.472;38.432;2023-08-06T01:52:32;100560.88;;;19.42;100.00
74552;BME280;63025;55.472;38.432;2023-08-06T01:54:57;100548.06;;;19.43;100.00
74552;BME280;63025;55.472;38.432;2023-08-06T01:57:23;100557.91;;;19.44;100.00
74552;BME280;63025;55.472;38.432;2023-08-06T01:59:49;100560.38;;;19.46;100.00
74552;BME280;63025;55.472;38.432;2023-08-06T02:02:15;100554.66;;;19.47;100.00
74552;BME280;63025;55.472;38.432;2023-08-06T02:04:41;100555.75;;;19.46;100.00
74552;BME280;63025;55.472;38.432;2023-08-06T02:07:07;100558.47;;;19.46;100.00
74552;BME280;63025;55.472;38.432;2023-08-06T02:09:33;100566.19;;;19.49;100.00
74552;BME280;63025;55.472;38.432;2023-08-06T02:12:01;100561.03;;;19.53;100.00
74552;BME280;63025;55.472;38.432;2023-08-06T02:14:28;100563.00;;;19.57;100.00
74552;BME280;63025;55.472;38.432;2023-08-06T02:16:54;100569.06;;;19.64;100.00
74552;BME280;63025;55.472;38.432;2023-08-06T02:19:20;100568.31;;;19.69;100.00
74552;BME280;63025;55.472;38.432;2023-08-06T02:21:46;100571.06;;;19.74;100.00
74552;BME280;63025;55.472;38.432;2023-08-06T02:24:11;100571.13;;;19.79;100.00
74552;BME280;63025;55.472;38.432;2023-08-06T02:26:37;100578.53;;;19.84;100.00
74552;BME280;63025;55.472;38.432;2023-08-06T02:29:03;100575.88;;;19.89;100.00
74552;BME280;63025;55.472;38.432;2023-08-06T02:31:29;100574.28;;;19.93;100.00
74552;BME280;63025;55.472;38.432;2023-08-06T02:33:55;100588.53;;;20.00;100.00
74552;BME280;63025;55.472;38.432;2023-08-06T02:36:21;100592.69;;;20.07;100.00
74552;BME280;63025;55.472;38.432;2023-08-06T02:38:47;100588.94;;;20.13;100.00
74552;BME280;63025;55.472;38.432;2023-08-06T02:41:12;100580.78;;;20.19;100.00
74552;BME280;63025;55.472;38.432;2023-08-06T02:43:38;100581.69;;;20.24;100.00
74552;BME280;63025;55.472;38.432;2023-08-06T02:46:04;100588.56;;;20.32;100.00
74552;BME280;63025;55.472;38.432;2023-08-06T02:48:30;100590.00;;;20.39;100.00
74552;BME280;63025;55.472;38.432;2023-08-06T02:50:59;100586.78;;;20.47;100.00
74552;BME280;63025;55.472;38.432;2023-08-06T02:53:26;100586.31;;;20.56;100.00
74552;BME280;63025;55.472;38.432;2023-08-06T02:55:53;100579.81;;;20.62;100.00
74552;BME280;63025;55.472;38.432;2023-08-06T02:58:24;100589.16;;;20.71;100.00
74552;BME280;63025;55.472;38.432;2023-08-06T03:01:06;100588.13;;;20.82;100.00
74552;BME280;63025;55.472;38.432;2023-08-06T03:03:42;100583.00;;;20.91;100.00
74552;BME280;63025;55.472;38.432;2023-08-06T03:06:10;100594.81;;;21.01;100.00
74552;BME280;63025;55.472;38.432;2023-08-06T03:08:43;100586.09;;;21.09;100.00
74552;BME280;63025;55.472;38.432;2023-08-06T03:11:09;100585.63;;;21.17;100.00
74552;BME280;63025;55.472;38.432;2023-08-06T03:13:35;100583.78;;;21.28;100.00
74552;BME280;63025;55.472;38.432;2023-08-06T03:16:01;100584.63;;;21.39;100.00
74552;BME280;63025;55.472;38.432;2023-08-06T03:18:29;100578.38;;;21.48;100.00
74552;BME280;63025;55.472;38.432;2023-08-06T03:20:57;100589.06;;;21.60;100.00
74552;BME280;63025;55.472;38.432;2023-08-06T03:23:27;100583.09;;;21.68;100.00
74552;BME280;63025;55.472;38.432;2023-08-06T03:25:53;100587.50;;;21.79;100.00
74552;BME280;63025;55.472;38.432;2023-08-06T03:28:19;100579.31;;;21.89;100.00
74552;BME280;63025;55.472;38.432;2023-08-06T03:30:46;100586.47;;;22.01;100.00
74552;BME280;63025;55.472;38.432;2023-08-06T03:33:12;100578.28;;;22.11;100.00
74552;BME280;63025;55.472;38.432;2023-08-06T03:35:38;100583.47;;;22.22;100.00
74552;BME280;63025;55.472;38.432;2023-08-06T03:38:04;100572.50;;;22.32;100.00
74552;BME280;63025;55.472;38.432;2023-08-06T03:40:30;100567.03;;;22.43;100.00
74552;BME280;63025;55.472;38.432;2023-08-06T03:42:58;100582.66;;;22.52;100.00
74552;BME280;63025;55.472;38.432;2023-08-06T03:45:24;100580.44;;;22.64;100.00
74552;BME280;63025;55.472;38.432;2023-08-06T03:47:53;100576.06;;;22.74;100.00
74552;BME280;63025;55.472;38.432;2023-08-06T03:50:19;100571.38;;;22.84;100.00
74552;BME280;63025;55.472;38.432;2023-08-06T03:52:45;100582.63;;;22.93;100.00
74552;BME280;63025;55.472;38.432;2023-08-06T03:55:11;100582.06;;;23.01;100.00
74552;BME280;63025;55.472;38.432;2023-08-06T03:57:37;100577.34;;;23.12;100.00
74552;BME280;63025;55.472;38.432;2023-08-06T04:00:03;100579.25;;;23.21;100.00
74552;BME280;63025;55.472;38.432;2023-08-06T04:02:41;100585.78;;;23.35;100.00
74552;BME280;63025;55.472;38.432;2023-08-06T04:05:09;100578.31;;;23.46;100.00
74552;BME280;63025;55.472;38.432;2023-08-06T04:07:34;100578.00;;;23.58;100.00
74552;BME280;63025;55.472;38.432;2023-08-06T04:10:03;100580.41;;;23.69;100.00
74552;BME280;63025;55.472;38.432;2023-08-06T04:12:32;100571.56;;;23.77;100.00
74552;BME280;63025;55.472;38.432;2023-08-06T04:15:03;100571.00;;;23.86;100.00
74552;BME280;63025;55.472;38.432;2023-08-06T04:17:33;100573.41;;;23.92;100.00
74552;BME280;63025;55.472;38.432;2023-08-06T04:19:59;100564.81;;;24.04;100.00
74552;BME280;63025;55.472;38.432;2023-08-06T04:22:26;100569.66;;;24.17;100.00
74552;BME280;63025;55.472;38.432;2023-08-06T04:24:52;100570.44;;;24.28;100.00
74552;BME280;63025;55.472;38.432;2023-08-06T04:27:19;100566.06;;;24.27;100.00
74552;BME280;63025;55.472;38.432;2023-08-06T04:29:46;100562.13;;;24.33;100.00
74552;BME280;63025;55.472;38.432;2023-08-06T04:32:13;100572.19;;;24.47;100.00
74552;BME280;63025;55.472;38.432;2023-08-06T04:34:45;100572.31;;;24.61;100.00
74552;BME280;63025;55.472;38.432;2023-08-06T04:37:11;100573.81;;;24.77;100.00
74552;BME280;63025;55.472;38.432;2023-08-06T04:39:37;100583.06;;;24.86;100.00
74552;BME280;63025;55.472;38.432;2023-08-06T04:42:03;100580.16;;;24.78;100.00
74552;BME280;63025;55.472;38.432;2023-08-06T04:44:29;100576.19;;;24.89;100.00
74552;BME280;63025;55.472;38.432;2023-08-06T04:46:55;100572.53;;;24.99;100.00
74552;BME280;63025;55.472;38.432;2023-08-06T04:49:21;100574.16;;;25.00;100.00
74552;BME280;63025;55.472;38.432;2023-08-06T04:51:47;100570.63;;;24.94;100.00
74552;BME280;63025;55.472;38.432;2023-08-06T04:54:13;100565.81;;;25.10;100.00
74552;BME280;63025;55.472;38.432;2023-08-06T04:56:39;100571.41;;;25.23;100.00
74552;BME280;63025;55.472;38.432;2023-08-06T04:59:05;100573.31;;;25.23;100.00
74552;BME280;63025;55.472;38.432;2023-08-06T05:01:31;100579.22;;;25.35;100.00
74552;BME280;63025;55.472;38.432;2023-08-06T05:03:57;100568.03;;;25.50;100.00
74552;BME280;63025;55.472;38.432;2023-08-06T05:06:23;100570.09;;;25.64;100.00
74552;BME280;63025;55.472;38.432;2023-08-06T05:08:49;100568.53;;;25.76;100.00
74552;BME280;63025;55.472;38.432;2023-08-06T05:11:14;100567.13;;;25.79;100.00
74552;BME280;63025;55.472;38.432;2023-08-06T05:13:40;100566.13;;;25.88;100.00
74552;BME280;63025;55.472;38.432;2023-08-06T05:16:06;100569.34;;;25.77;100.00
74552;BME280;63025;55.472;38.432;2023-08-06T05:18:33;100559.63;;;25.84;100.00
74552;BME280;63025;55.472;38.432;2023-08-06T05:21:00;100567.41;;;25.96;100.00
74552;BME280;63025;55.472;38.432;2023-08-06T05:23:27;100569.56;;;25.99;100.00
74552;BME280;63025;55.472;38.432;2023-08-06T05:25:52;100564.19;;;26.08;100.00
74552;BME280;63025;55.472;38.432;2023-08-06T05:28:19;100562.31;;;26.22;100.00
74552;BME280;63025;55.472;38.432;2023-08-06T05:30:45;100562.19;;;26.32;100.00
74552;BME280;63025;55.472;38.432;2023-08-06T05:33:10;100561.28;;;26.37;100.00
74552;BME280;63025;55.472;38.432;2023-08-06T05:35:36;100560.88;;;26.43;100.00
74552;BME280;63025;55.472;38.432;2023-08-06T05:38:02;100553.16;;;26.59;100.00
74552;BME280;63025;55.472;38.432;2023-08-06T05:40:28;100553.38;;;26.62;100.00
74552;BME280;63025;55.472;38.432;2023-08-06T05:42:54;100546.25;;;26.75;100.00
74552;BME280;63025;55.472;38.432;2023-08-06T05:45:21;100550.31;;;26.91;100.00
74552;BME280;63025;55.472;38.432;2023-08-06T05:47:50;100552.09;;;27.01;100.00
74552;BME280;63025;55.472;38.432;2023-08-06T05:50:16;100550.88;;;27.07;100.00
74552;BME280;63025;55.472;38.432;2023-08-06T05:52:42;100548.53;;;27.14;100.00
74552;BME280;63025;55.472;38.432;2023-08-06T05:55:08;100547.72;;;27.14;100.00
74552;BME280;63025;55.472;38.432;2023-08-06T05:57:34;100553.13;;;27.19;100.00
74552;BME280;63025;55.472;38.432;2023-08-06T06:00:00;100558.44;;;27.29;100.00
74552;BME280;63025;55.472;38.432;2023-08-06T06:02:31;100559.56;;;27.28;100.00
74552;BME280;63025;55.472;38.432;2023-08-06T06:04:56;100559.97;;;27.35;100.00
74552;BME280;63025;55.472;38.432;2023-08-06T06:07:22;100559.44;;;27.47;100.00
74552;BME280;63025;55.472;38.432;2023-08-06T06:09:48;100554.53;;;27.57;100.00
74552;BME280;63025;55.472;38.432;2023-08-06T06:12:14;100557.06;;;27.67;100.00
74552;BME280;63025;55.472;38.432;2023-08-06T06:14:41;100563.69;;;27.80;100.00
74552;BME280;63025;55.472;38.432;2023-08-06T06:17:06;100560.50;;;27.87;100.00
74552;BME280;63025;55.472;38.432;2023-08-06T06:19:32;100561.06;;;27.97;100.00
74552;BME280;63025;55.472;38.432;2023-08-06T06:21:58;100556.63;;;28.10;100.00
74552;BME280;63025;55.472;38.432;2023-08-06T06:24:24;100558.13;;;28.16;100.00
74552;BME280;63025;55.472;38.432;2023-08-06T06:26:50;100552.09;;;28.14;100.00
74552;BME280;63025;55.472;38.432;2023-08-06T06:29:16;100547.06;;;28.16;100.00
74552;BME280;63025;55.472;38.432;2023-08-06T06:31:41;100554.81;;;28.28;100.00
74552;BME280;63025;55.472;38.432;2023-08-06T06:34:07;100542.69;;;28.37;100.00
74552;BME280;63025;55.472;38.432;2023-08-06T06:36:33;100545.09;;;28.30;100.00
74552;BME280;63025;55.472;38.432;2023-08-06T06:38:59;100550.38;;;28.18;100.00
74552;BME280;63025;55.472;38.432;2023-08-06T06:41:25;100535.47;;;28.28;100.00
74552;BME280;63025;55.472;38.432;2023-08-06T06:43:52;100539.59;;;28.39;100.00
74552;BME280;63025;55.472;38.432;2023-08-06T06:46:18;100544.41;;;28.56;100.00
74552;BME280;63025;55.472;38.432;2023-08-06T06:48:43;100545.72;;;28.58;100.00
74552;BME280;63025;55.472;38.432;2023-08-06T06:51:09;100533.25;;;28.69;100.00
74552;BME280;63025;55.472;38.432;2023-08-06T06:53:35;100544.59;;;28.81;100.00
74552;BME280;63025;55.472;38.432;2023-08-06T06:56:02;100549.81;;;28.83;100.00
74552;BME280;63025;55.472;38.432;2023-08-06T06:58:30;100556.69;;;28.94;100.00
74552;BME280;63025;55.472;38.432;2023-08-06T07:00:56;100541.34;;;28.88;100.00
74552;BME280;63025;55.472;38.432;2023-08-06T07:03:22;100547.06;;;28.92;100.00
74552;BME280;63025;55.472;38.432;2023-08-06T07:05:49;100550.16;;;28.90;100.00
74552;BME280;63025;55.472;38.432;2023-08-06T07:08:15;100551.97;;;28.95;100.00
74552;BME280;63025;55.472;38.432;2023-08-06T07:10:41;100552.50;;;29.05;100.00
74552;BME280;63025;55.472;38.432;2023-08-06T07:13:08;100554.47;;;29.13;100.00
74552;BME280;63025;55.472;38.432;2023-08-06T07:15:34;100538.50;;;29.10;100.00
74552;BME280;63025;55.472;38.432;2023-08-06T07:18:00;100545.03;;;29.14;100.00
74552;BME280;63025;55.472;38.432;2023-08-06T07:20:26;100545.38;;;29.21;100.00
74552;BME280;63025;55.472;38.432;2023-08-06T07:22:54;100545.56;;;29.34;100.00
74552;BME280;63025;55.472;38.432;2023-08-06T07:25:20;100546.53;;;29.29;100.00
74552;BME280;63025;55.472;38.432;2023-08-06T07:27:46;100532.44;;;29.48;100.00
74552;BME280;63025;55.472;38.432;2023-08-06T07:30:12;100534.72;;;29.63;100.00
74552;BME280;63025;55.472;38.432;2023-08-06T07:32:38;100535.03;;;29.70;100.00
74552;BME280;63025;55.472;38.432;2023-08-06T07:35:04;100532.78;;;29.72;100.00
74552;BME280;63025;55.472;38.432;2023-08-06T07:37:30;100538.94;;;29.61;100.00
74552;BME280;63025;55.472;38.432;2023-08-06T07:39:56;100545.81;;;29.63;100.00
74552;BME280;63025;55.472;38.432;2023-08-06T07:42:22;100538.50;;;29.67;100.00
74552;BME280;63025;55.472;38.432;2023-08-06T07:44:56;100540.44;;;29.75;100.00
74552;BME280;63025;55.472;38.432;2023-08-06T07:47:22;100542.88;;;29.85;100.00
74552;BME280;63025;55.472;38.432;2023-08-06T07:49:48;100534.09;;;30.01;100.00
74552;BME280;63025;55.472;38.432;2023-08-06T07:52:14;100541.63;;;30.09;100.00
74552;BME280;63025;55.472;38.432;2023-08-06T07:54:40;100538.16;;;29.94;100.00
74552;BME280;63025;55.472;38.432;2023-08-06T07:57:06;100536.03;;;29.91;100.00
74552;BME280;63025;55.472;38.432;2023-08-06T07:59:32;100535.72;;;29.93;100.00
74552;BME280;63025;55.472;38.432;2023-08-06T08:01:58;100537.84;;;30.13;100.00
74552;BME280;63025;55.472;38.432;2023-08-06T08:04:24;100529.69;;;30.17;100.00
74552;BME280;63025;55.472;38.432;2023-08-06T08:06:50;100530.16;;;30.27;100.00
74552;BME280;63025;55.472;38.432;2023-08-06T08:09:16;100531.78;;;30.37;100.00
74552;BME280;63025;55.472;38.432;2023-08-06T08:11:42;100534.69;;;30.49;100.00
74552;BME280;63025;55.472;38.432;2023-08-06T08:14:08;100531.41;;;30.56;100.00
74552;BME280;63025;55.472;38.432;2023-08-06T08:16:34;100525.53;;;30.57;100.00
74552;BME280;63025;55.472;38.432;2023-08-06T08:18:59;100525.47;;;30.75;100.00
74552;BME280;63025;55.472;38.432;2023-08-06T08:21:25;100519.91;;;30.83;100.00
74552;BME280;63025;55.472;38.432;2023-08-06T08:23:51;100518.03;;;30.96;100.00
74552;BME280;63025;55.472;38.432;2023-08-06T08:26:17;100515.28;;;31.25;100.00
74552;BME280;63025;55.472;38.432;2023-08-06T08:28:43;100519.19;;;31.54;100.00
74552;BME280;63025;55.472;38.432;2023-08-06T08:31:10;100519.41;;;31.90;100.00
74552;BME280;63025;55.472;38.432;2023-08-06T08:33:39;100513.59;;;32.16;100.00
74552;BME280;63025;55.472;38.432;2023-08-06T08:36:05;100508.97;;;32.65;100.00
74552;BME280;63025;55.472;38.432;2023-08-06T08:38:31;100509.38;;;32.76;100.00
74552;BME280;63025;55.472;38.432;2023-08-06T08:40:57;100522.75;;;33.31;98.09
74552;BME280;63025;55.472;38.432;2023-08-06T08:43:23;100511.09;;;33.41;87.98
74552;BME280;63025;55.472;38.432;2023-08-06T08:45:50;100522.78;;;33.99;83.02
74552;BME280;63025;55.472;38.432;2023-08-06T08:48:18;100511.38;;;34.32;76.58
74552;BME280;63025;55.472;38.432;2023-08-06T08:50:47;100518.03;;;34.87;72.61
74552;BME280;63025;55.472;38.432;2023-08-06T08:53:15;100503.44;;;35.63;69.02
74552;BME280;63025;55.472;38.432;2023-08-06T08:55:43;100502.56;;;36.59;67.41
74552;BME280;63025;55.472;38.432;2023-08-06T08:58:10;100505.50;;;37.42;62.09
74552;BME280;63025;55.472;38.432;2023-08-06T09:00:36;100511.03;;;37.95;56.49
74552;BME280;63025;55.472;38.432;2023-08-06T09:03:06;100512.38;;;38.41;51.05
74552;BME280;63025;55.472;38.432;2023-08-06T09:05:32;100512.44;;;38.48;47.42
74552;BME280;63025;55.472;38.432;2023-08-06T09:08:03;100518.31;;;39.24;45.53
74552;BME280;63025;55.472;38.432;2023-08-06T09:10:29;100515.91;;;40.03;42.73
74552;BME280;63025;55.472;38.432;2023-08-06T09:12:56;100503.03;;;40.02;40.00
74552;BME280;63025;55.472;38.432;2023-08-06T09:15:26;100499.88;;;40.24;39.90
74552;BME280;63025;55.472;38.432;2023-08-06T09:17:53;100506.38;;;40.46;38.08
74552;BME280;63025;55.472;38.432;2023-08-06T09:20:20;100507.59;;;40.56;37.45
74552;BME280;63025;55.472;38.432;2023-08-06T09:22:45;100502.38;;;41.11;36.60
74552;BME280;63025;55.472;38.432;2023-08-06T09:25:21;100494.31;;;41.13;35.68
74552;BME280;63025;55.472;38.432;2023-08-06T09:27:50;100494.31;;;40.70;34.94
74552;BME280;63025;55.472;38.432;2023-08-06T09:30:30;100494.72;;;41.19;35.84
74552;BME280;63025;55.472;38.432;2023-08-06T09:32:57;100494.63;;;41.58;34.62
74552;BME280;63025;55.472;38.432;2023-08-06T09:35:23;100489.78;;;42.31;33.84
74552;BME280;63025;55.472;38.432;2023-08-06T09:37:48;100498.19;;;42.97;33.52
74552;BME280;63025;55.472;38.432;2023-08-06T09:40:31;100500.00;;;43.59;32.37
74552;BME280;63025;55.472;38.432;2023-08-06T09:42:58;100485.06;;;44.16;31.61
74552;BME280;63025;55.472;38.432;2023-08-06T09:45:32;100488.22;;;44.48;30.07
74552;BME280;63025;55.472;38.432;2023-08-06T09:48:00;100483.09;;;44.13;29.35
74552;BME280;63025;55.472;38.432;2023-08-06T09:50:30;100476.63;;;44.39;29.17
74552;BME280;63025;55.472;38.432;2023-08-06T09:52:57;100480.78;;;44.81;28.47
74552;BME280;63025;55.472;38.432;2023-08-06T09:55:24;100472.44;;;44.71;27.95
74552;BME280;63025;55.472;38.432;2023-08-06T09:57:52;100471.03;;;44.59;27.68
74552;BME280;63025;55.472;38.432;2023-08-06T10:00:19;100466.19;;;44.56;27.55
74552;BME280;63025;55.472;38.432;2023-08-06T10:02:46;100466.00;;;43.55;27.88
74552;BME280;63025;55.472;38.432;2023-08-06T10:05:12;100459.41;;;43.69;28.62
74552;BME280;63025;55.472;38.432;2023-08-06T10:07:38;100452.13;;;43.95;28.61
74552;BME280;63025;55.472;38.432;2023-08-06T10:10:06;100453.25;;;44.55;28.67
74552;BME280;63025;55.472;38.432;2023-08-06T10:12:54;100447.34;;;45.16;28.45
74552;BME280;63025;55.472;38.432;2023-08-06T10:15:24;100444.66;;;45.84;27.86
74552;BME280;63025;55.472;38.432;2023-08-06T10:17:52;100445.56;;;45.61;27.27
74552;BME280;63025;55.472;38.432;2023-08-06T10:20:20;100439.41;;;45.83;27.30
74552;BME280;63025;55.472;38.432;2023-08-06T10:23:05;100443.22;;;46.12;25.45
74552;BME280;63025;55.472;38.432;2023-08-06T10:25:33;100427.38;;;46.11;25.44
74552;BME280;63025;55.472;38.432;2023-08-06T10:28:00;100433.25;;;45.28;26.29
74552;BME280;63025;55.472;38.432;2023-08-06T10:30:28;100427.09;;;45.53;26.89
74552;BME280;63025;55.472;38.432;2023-08-06T10:33:01;100435.97;;;46.27;26.97
74552;BME280;63025;55.472;38.432;2023-08-06T10:35:40;100426.81;;;46.97;25.71
74552;BME280;63025;55.472;38.432;2023-08-06T10:40:42;100435.25;;;45.87;25.40
74552;BME280;63025;55.472;38.432;2023-08-06T10:43:08;100424.72;;;45.88;26.18
74552;BME280;63025;55.472;38.432;2023-08-06T10:45:50;100426.31;;;46.86;25.61
74552;BME280;63025;55.472;38.432;2023-08-06T10:48:28;100443.50;;;46.83;24.97
74552;BME280;63025;55.472;38.432;2023-08-06T10:50:55;100428.97;;;45.40;25.53
74552;BME280;63025;55.472;38.432;2023-08-06T10:53:21;100417.47;;;45.27;25.80
74552;BME280;63025;55.472;38.432;2023-08-06T10:55:47;100419.59;;;45.23;25.85
74552;BME280;63025;55.472;38.432;2023-08-06T10:58:15;100418.53;;;43.36;27.65
74552;BME280;63025;55.472;38.432;2023-08-06T11:00:42;100407.34;;;44.13;27.77
74552;BME280;63025;55.472;38.432;2023-08-06T11:03:08;100404.94;;;43.54;27.38
74552;BME280;63025;55.472;38.432;2023-08-06T11:05:35;100405.22;;;44.21;27.60
74552;BME280;63025;55.472;38.432;2023-08-06T11:08:01;100407.84;;;45.02;27.01
74552;BME280;63025;55.472;38.432;2023-08-06T11:10:28;100412.22;;;45.46;26.24
74552;BME280;63025;55.472;38.432;2023-08-06T11:12:54;100400.50;;;44.38;26.56
74552;BME280;63025;55.472;38.432;2023-08-06T11:15:20;100397.38;;;45.18;26.90
74552;BME280;63025;55.472;38.432;2023-08-06T11:17:47;100400.13;;;45.61;25.96
74552;BME280;63025;55.472;38.432;2023-08-06T11:20:13;100394.50;;;45.38;25.85
74552;BME280;63025;55.472;38.432;2023-08-06T11:22:39;100392.75;;;46.32;25.75
74552;BME280;63025;55.472;38.432;2023-08-06T11:25:06;100402.16;;;45.97;24.96
74552;BME280;63025;55.472;38.432;2023-08-06T11:27:33;100390.84;;;45.77;24.88
74552;BME280;63025;55.472;38.432;2023-08-06T11:29:59;100398.38;;;44.65;25.67
74552;BME280;63025;55.472;38.432;2023-08-06T11:32:25;100387.63;;;45.19;25.61
74552;BME280;63025;55.472;38.432;2023-08-06T11:34:53;100390.97;;;46.06;25.54
74552;BME280;63025;55.472;38.432;2023-08-06T11:37:21;100403.88;;;46.88;24.83
74552;BME280;63025;55.472;38.432;2023-08-06T11:39:49;100385.72;;;46.98;24.38
74552;BME280;63025;55.472;38.432;2023-08-06T11:42:15;100390.19;;;46.83;24.03
74552;BME280;63025;55.472;38.432;2023-08-06T11:44:41;100388.94;;;47.00;23.88
74552;BME280;63025;55.472;38.432;2023-08-06T11:47:16;100383.88;;;47.21;23.98
74552;BME280;63025;55.472;38.432;2023-08-06T11:49:47;100402.09;;;47.23;24.00
74552;BME280;63025;55.472;38.432;2023-08-06T11:55:08;100371.78;;;47.17;22.99
74552;BME280;63025;55.472;38.432;2023-08-06T11:57:44;100370.53;;;46.11;23.12
74552;BME280;63025;55.472;38.432;2023-08-06T12:00:12;100369.13;;;46.03;23.54
74552;BME280;63025;55.472;38.432;2023-08-06T12:02:42;100364.09;;;45.75;24.03
74552;BME280;63025;55.472;38.432;2023-08-06T12:07:44;100366.41;;;45.63;24.08
74552;BME280;63025;55.472;38.432;2023-08-06T12:10:14;100358.91;;;45.53;24.53
74552;BME280;63025;55.472;38.432;2023-08-06T12:12:40;100369.19;;;44.88;24.21
74552;BME280;63025;55.472;38.432;2023-08-06T12:15:07;100357.19;;;44.57;24.63
74552;BME280;63025;55.472;38.432;2023-08-06T12:17:34;100359.53;;;44.62;24.91
74552;BME280;63025;55.472;38.432;2023-08-06T12:20:00;100357.97;;;44.34;24.79
74552;BME280;63025;55.472;38.432;2023-08-06T12:22:26;100352.09;;;44.91;25.10
74552;BME280;63025;55.472;38.432;2023-08-06T12:24:52;100350.09;;;43.72;24.74
74552;BME280;63025;55.472;38.432;2023-08-06T12:27:18;100354.97;;;44.45;25.60
74552;BME280;63025;55.472;38.432;2023-08-06T12:29:46;100355.31;;;44.93;25.04
74552;BME280;63025;55.472;38.432;2023-08-06T12:32:12;100345.44;;;44.35;25.51
74552;BME280;63025;55.472;38.432;2023-08-06T12:34:40;100332.16;;;44.95;25.12
74552;BME280;63025;55.472;38.432;2023-08-06T12:37:06;100335.06;;;45.11;24.76
74552;BME280;63025;55.472;38.432;2023-08-06T12:39:36;100336.81;;;44.85;24.07
74552;BME280;63025;55.472;38.432;2023-08-06T12:42:04;100336.19;;;45.53;23.99
74552;BME280;63025;55.472;38.432;2023-08-06T12:44:31;100340.56;;;45.74;24.66